Time;durP1;ratioP1;P1;durP2;ratioP2;P2;SDS_P1;SDS_P2;PMS_P1;PMS_P2;Temp;Humidity;BMP_temperature;BMP_pressure;BME280_temperature;BME280_humidity;BME280_pressure;Samples;Min_cycle;Max_cycle;Signal;HPM_P1;HPM_P2
2023/11/07 00:00:08;;;;;;;0.40;0.40;;;;;;;5.98;100.00;99968.88;5016248;28;20025;-79
2023/11/07 00:02:34;;;;;;;0.40;0.40;;;;;;;5.94;100.00;99963.03;5016045;28;20041;-79
2023/11/07 00:05:00;;;;;;;0.40;0.40;;;;;;;5.91;100.00;99975.84;4999474;28;20037;-79
2023/11/07 00:07:25;;;;;;;0.40;0.40;;;;;;;5.91;100.00;99975.84;5016215;28;20029;-79
2023/11/07 00:09:51;;;;;;;0.40;0.40;;;;;;;5.91;100.00;99987.34;5000070;28;20034;-80
2023/11/07 00:12:18;;;;;;;0.40;0.40;;;;;;;5.97;100.00;99995.72;5015904;28;20125;-79
2023/11/07 00:14:44;;;;;;;0.30;0.30;;;;;;;5.92;100.00;99997.00;4999518;28;20038;-79
2023/11/07 00:17:10;;;;;;;0.40;0.40;;;;;;;5.89;100.00;100008.00;4999876;28;20477;-80
2023/11/07 00:19:36;;;;;;;0.40;0.40;;;;;;;5.89;100.00;100004.53;4999729;28;20040;-79
2023/11/07 00:22:02;;;;;;;0.40;0.40;;;;;;;5.96;100.00;100005.56;5032681;28;20033;-79
2023/11/07 00:24:28;;;;;;;0.40;0.40;;;;;;;6.00;100.00;100016.75;5032224;28;20029;-79
2023/11/07 00:26:54;;;;;;;0.40;0.40;;;;;;;6.01;100.00;100026.44;4999524;28;20062;-79
2023/11/07 00:29:22;;;;;;;0.40;0.40;;;;;;;6.05;100.00;100020.59;4999771;28;20112;-79
2023/11/07 00:31:52;;;;;;;0.43;0.43;;;;;;;6.11;100.00;100022.63;5032378;28;20464;-79
2023/11/07 00:34:18;;;;;;;0.50;0.50;;;;;;;6.23;100.00;100024.94;5015811;28;20030;-79
2023/11/07 00:36:46;;;;;;;0.50;0.50;;;;;;;6.25;100.00;100021.13;4999728;28;20036;-79
2023/11/07 00:39:15;;;;;;;0.40;0.40;;;;;;;6.20;100.00;100023.44;5032448;28;20025;-79
2023/11/07 00:41:42;;;;;;;0.50;0.50;;;;;;;6.14;100.00;100035.63;5032363;28;20113;-80
2023/11/07 00:44:11;;;;;;;0.40;0.40;;;;;;;6.12;100.00;100042.13;4999788;28;20040;-80
2023/11/07 00:46:37;;;;;;;0.50;0.50;;;;;;;6.16;100.00;100038.94;4999472;28;20049;-80
2023/11/07 00:49:04;;;;;;;0.50;0.50;;;;;;;6.22;100.00;100040.16;4999749;28;20034;-79
2023/11/07 00:51:29;;;;;;;0.40;0.40;;;;;;;6.27;100.00;100039.63;5016065;28;20029;-79
2023/11/07 00:53:55;;;;;;;0.50;0.50;;;;;;;6.31;100.00;100044.47;4999618;28;20539;-79
2023/11/07 00:56:20;;;;;;;0.40;0.40;;;;;;;6.41;100.00;100049.66;5032150;28;20040;-80
2023/11/07 00:58:47;;;;;;;0.40;0.40;;;;;;;6.46;100.00;100050.00;5015837;28;20053;-79
2023/11/07 01:01:16;;;;;;;0.40;0.40;;;;;;;6.43;100.00;100050.34;4999477;28;20022;-79
2023/11/07 01:03:45;;;;;;;0.40;0.40;;;;;;;6.36;100.00;100046.66;4999637;28;20120;-79
2023/11/07 01:06:11;;;;;;;0.40;0.40;;;;;;;6.26;100.00;100045.97;4999617;28;20048;-79
2023/11/07 01:08:38;;;;;;;0.40;0.40;;;;;;;6.12;100.00;100050.97;5015439;28;20468;-79
2023/11/07 01:11:04;;;;;;;0.40;0.40;;;;;;;5.97;100.00;100049.94;5032274;28;20033;-79
2023/11/07 01:13:30;;;;;;;0.40;0.40;;;;;;;5.86;100.00;100050.22;5015755;28;20026;-79
2023/11/07 01:15:55;;;;;;;0.40;0.40;;;;;;;5.65;100.00;100056.81;5016763;28;20391;-79
2023/11/07 01:18:22;;;;;;;0.40;0.40;;;;;;;5.72;100.00;100063.19;5003132;28;20033;-79
2023/11/07 01:20:48;;;;;;;0.40;0.40;;;;;;;5.91;100.00;100062.06;5019478;28;20067;-79
2023/11/07 01:23:13;;;;;;;0.40;0.40;;;;;;;6.00;100.00;100065.59;5003056;28;20396;-79
2023/11/07 01:25:41;;;;;;;0.40;0.40;;;;;;;6.18;100.00;100070.81;5002820;28;20037;-79
2023/11/07 01:28:07;;;;;;;0.40;0.40;;;;;;;6.34;100.00;100067.34;5002831;28;20179;-79
2023/11/07 01:30:33;;;;;;;0.40;0.40;;;;;;;6.43;100.00;100068.16;5018722;28;20112;-79
2023/11/07 01:32:58;;;;;;;0.40;0.40;;;;;;;6.44;100.00;100061.84;5002883;28;20123;-79
2023/11/07 01:35:25;;;;;;;0.40;0.40;;;;;;;6.43;100.00;100069.03;5002886;28;20426;-79
2023/11/07 01:37:51;;;;;;;0.40;0.40;;;;;;;6.44;100.00;100067.19;5002691;28;20036;-79
2023/11/07 01:40:17;;;;;;;0.40;0.40;;;;;;;6.38;100.00;100069.53;5002620;28;20041;-79
2023/11/07 01:42:43;;;;;;;0.40;0.40;;;;;;;6.30;100.00;100076.69;5034937;28;20507;-79
2023/11/07 01:45:13;;;;;;;0.40;0.40;;;;;;;6.16;100.00;100070.97;5018595;28;20037;-79
2023/11/07 01:47:40;;;;;;;0.40;0.40;;;;;;;6.03;100.00;100073.28;5019361;28;20041;-79
2023/11/07 01:50:09;;;;;;;0.43;0.43;;;;;;;5.84;100.00;100079.69;5034906;28;20036;-80
2023/11/07 01:52:34;;;;;;;0.40;0.40;;;;;;;5.85;100.00;100088.56;5034870;28;20048;-79
2023/11/07 01:55:01;;;;;;;0.40;0.40;;;;;;;5.91;100.00;100093.25;5002456;28;20464;-79
2023/11/07 01:57:27;;;;;;;0.40;0.40;;;;;;;5.94;100.00;100090.28;5002195;28;20065;-80
2023/11/07 01:59:53;;;;;;;0.40;0.40;;;;;;;5.96;100.00;100096.31;5018720;28;20138;-80
2023/11/07 02:02:19;;;;;;;0.40;0.40;;;;;;;5.97;100.00;100099.78;5018261;28;20142;-80
2023/11/07 02:04:48;;;;;;;0.40;0.40;;;;;;;6.04;100.00;100104.31;5018214;28;20041;-80
2023/11/07 02:07:15;;;;;;;0.43;0.43;;;;;;;5.99;100.00;100103.97;5034514;28;20033;-80
2023/11/07 02:09:43;;;;;;;0.50;0.50;;;;;;;5.90;100.00;100103.09;5018460;28;20060;-80
2023/11/07 02:12:09;;;;;;;0.40;0.40;;;;;;;5.70;100.00;100099.00;5002082;28;20040;-79
2023/11/07 02:14:36;;;;;;;0.40;0.40;;;;;;;5.63;100.00;100108.63;5002350;28;20033;-80
2023/11/07 02:17:03;;;;;;;0.40;0.40;;;;;;;5.61;100.00;100110.63;5018522;28;20069;-80
2023/11/07 02:19:28;;;;;;;0.40;0.40;;;;;;;5.71;100.00;100106.00;5034783;28;20174;-79
2023/11/07 02:21:58;;;;;;;0.40;0.40;;;;;;;5.93;100.00;100109.94;5001463;28;20480;-80
2023/11/07 02:24:24;;;;;;;0.40;0.40;;;;;;;5.96;100.00;100122.16;5001875;28;20088;-79
2023/11/07 02:26:54;;;;;;;0.40;0.40;;;;;;;5.87;100.00;100107.91;5001689;28;20045;-79
2023/11/07 02:29:21;;;;;;;0.40;0.40;;;;;;;5.87;100.00;100111.38;5001811;28;20034;-79
2023/11/07 02:31:47;;;;;;;0.40;0.40;;;;;;;5.78;100.00;100108.88;5001623;28;20120;-80
2023/11/07 02:34:12;;;;;;;0.50;0.50;;;;;;;5.72;100.00;100105.84;5034029;28;20033;-80
2023/11/07 02:36:38;;;;;;;0.40;0.40;;;;;;;5.64;100.00;100105.81;5017855;28;20035;-80
2023/11/07 02:39:07;;;;;;;0.50;0.50;;;;;;;5.56;100.00;100115.59;5018056;28;20091;-79
2023/11/07 02:41:35;;;;;;;0.50;0.50;;;;;;;5.65;100.00;100118.16;5018337;28;20040;-80
2023/11/07 02:44:03;;;;;;;0.40;0.40;;;;;;;5.83;100.00;100118.06;5001558;28;20121;-80
2023/11/07 02:46:28;;;;;;;0.50;0.50;;;;;;;5.99;100.00;100116.50;5018171;28;20033;-79
2023/11/07 02:48:54;;;;;;;0.40;0.40;;;;;;;5.98;100.00;100122.81;5001741;28;20087;-80
2023/11/07 02:51:20;;;;;;;0.45;0.45;;;;;;;5.91;100.00;100119.94;5001514;28;20125;-80
2023/11/07 02:53:45;;;;;;;0.40;0.40;;;;;;;5.85;100.00;100118.75;5001430;28;20120;-79
2023/11/07 02:56:11;;;;;;;0.50;0.50;;;;;;;5.69;100.00;100122.19;5017309;28;20033;-80
2023/11/07 02:58:37;;;;;;;0.40;0.40;;;;;;;5.58;100.00;100121.59;5001109;28;20443;-79
2023/11/07 03:01:03;;;;;;;0.50;0.50;;;;;;;5.53;100.00;100123.91;5001281;28;20037;-79
2023/11/07 03:03:31;;;;;;;0.45;0.45;;;;;;;5.47;100.00;100120.06;5001874;28;20491;-79
2023/11/07 03:05:57;;;;;;;0.50;0.50;;;;;;;5.48;100.00;100121.75;5016929;28;20466;-79
2023/11/07 03:08:23;;;;;;;0.43;0.43;;;;;;;5.40;100.00;100124.34;5001121;28;20033;-79
2023/11/07 03:10:48;;;;;;;0.50;0.50;;;;;;;5.31;100.00;100123.47;5017454;28;20033;-79
2023/11/07 03:13:14;;;;;;;0.43;0.43;;;;;;;5.22;100.00;100113.75;5000989;28;20396;-79
2023/11/07 03:15:39;;;;;;;0.40;0.40;;;;;;;5.13;100.00;100112.84;5001039;28;20075;-79
2023/11/07 03:18:05;;;;;;;0.40;0.40;;;;;;;5.03;100.00;100117.47;5017185;28;20029;-79
2023/11/07 03:20:32;;;;;;;0.40;0.40;;;;;;;4.92;100.00;100112.38;5033533;28;20121;-79
2023/11/07 03:22:58;;;;;;;0.40;0.40;;;;;;;4.94;100.00;100121.03;5017196;28;20049;-79
2023/11/07 03:25:25;;;;;;;0.40;0.40;;;;;;;4.90;100.00;100114.38;5000928;28;20057;-79
2023/11/07 03:27:51;;;;;;;0.45;0.45;;;;;;;4.96;100.00;100109.25;5033083;28;20034;-79
2023/11/07 03:30:17;;;;;;;0.40;0.40;;;;;;;4.93;100.00;100114.06;5000588;28;20052;-80
2023/11/07 03:32:43;;;;;;;0.40;0.40;;;;;;;4.78;100.00;100117.25;5000667;28;20029;-80
2023/11/07 03:35:09;;;;;;;0.40;0.40;;;;;;;4.65;100.00;100111.50;5000394;28;20025;-79
2023/11/07 03:37:34;;;;;;;0.40;0.40;;;;;;;4.53;100.00;100113.56;5000488;28;20041;-80
2023/11/07 03:40:00;;;;;;;0.40;0.40;;;;;;;4.54;100.00;100109.06;5016393;28;20030;-79
2023/11/07 03:42:26;;;;;;;0.50;0.50;;;;;;;4.57;100.00;100114.91;5000292;28;20048;-80
2023/11/07 03:44:51;;;;;;;0.50;0.50;;;;;;;4.59;100.00;100120.09;5000287;28;20029;-79
2023/11/07 03:47:17;;;;;;;0.40;0.40;;;;;;;4.60;100.00;100122.63;5000250;28;20037;-79
2023/11/07 03:49:43;;;;;;;0.50;0.50;;;;;;;4.68;100.00;100126.31;5016379;28;20480;-79
2023/11/07 03:52:22;;;;;;;0.40;0.40;;;;;;;4.69;100.00;100117.38;5033046;28;20472;-79
2023/11/07 03:54:48;;;;;;;0.45;0.45;;;;;;;4.65;100.00;100132.78;5033182;28;20041;-79
2023/11/07 03:57:13;;;;;;;0.50;0.50;;;;;;;4.65;100.00;100142.63;5000173;28;20034;-79
2023/11/07 03:59:44;;;;;;;0.40;0.40;;;;;;;4.66;100.00;100142.47;5000161;28;20037;-79
2023/11/07 04:02:11;;;;;;;0.50;0.50;;;;;;;4.63;100.00;100143.63;5032517;28;20579;-79
2023/11/07 04:04:37;;;;;;;0.40;0.40;;;;;;;4.67;100.00;100148.63;5016273;28;20108;-79
2023/11/07 04:07:03;;;;;;;0.40;0.40;;;;;;;4.65;100.00;100147.94;4999658;28;20218;-79
2023/11/07 04:09:31;;;;;;;0.40;0.40;;;;;;;4.62;100.00;100149.91;5000037;28;20467;-79
2023/11/07 04:11:56;;;;;;;0.40;0.40;;;;;;;4.61;100.00;100155.41;5000494;28;20065;-79
2023/11/07 04:14:22;;;;;;;0.40;0.40;;;;;;;4.58;100.00;100158.38;4999982;28;20118;-79
2023/11/07 04:16:48;;;;;;;0.40;0.40;;;;;;;4.56;100.00;100160.34;5016228;28;20087;-78
2023/11/07 04:19:14;;;;;;;0.40;0.40;;;;;;;4.54;100.00;100151.66;4999863;28;20072;-78
2023/11/07 04:21:40;;;;;;;0.43;0.43;;;;;;;4.50;100.00;100156.47;4999739;28;20546;-81
2023/11/07 04:24:06;;;;;;;0.50;0.50;;;;;;;4.50;100.00;100159.13;5032196;28;20056;-78
2023/11/07 04:26:32;;;;;;;0.40;0.40;;;;;;;4.45;100.00;100158.75;5016043;28;20483;-78
2023/11/07 04:28:57;;;;;;;0.40;0.40;;;;;;;4.47;100.00;100159.41;4999901;28;20048;-78
2023/11/07 04:31:23;;;;;;;0.40;0.40;;;;;;;4.38;100.00;100163.81;5032023;28;20030;-78
2023/11/07 04:33:49;;;;;;;0.40;0.40;;;;;;;4.34;100.00;100161.59;5015758;28;20094;-78
2023/11/07 04:36:16;;;;;;;0.50;0.50;;;;;;;4.30;100.00;100166.41;5032443;28;20036;-78
2023/11/07 04:38:43;;;;;;;0.50;0.50;;;;;;;4.15;100.00;100160.75;5032264;28;20029;-80
2023/11/07 04:41:12;;;;;;;0.50;0.50;;;;;;;4.10;100.00;100175.47;4999890;28;20029;-78
2023/11/07 04:43:39;;;;;;;0.40;0.40;;;;;;;4.07;100.00;100186.41;5032111;28;20030;-78
2023/11/07 04:46:05;;;;;;;0.50;0.50;;;;;;;4.10;100.00;100188.78;5032225;28;20427;-78
2023/11/07 04:48:32;;;;;;;0.50;0.50;;;;;;;4.03;100.00;100193.03;4998944;28;20494;-78
2023/11/07 04:50:59;;;;;;;0.40;0.40;;;;;;;4.04;100.00;100192.03;5017492;28;20033;-78
2023/11/07 04:53:26;;;;;;;0.40;0.40;;;;;;;4.00;100.00;100196.00;5035994;28;20036;-78
2023/11/07 04:55:52;;;;;;;0.40;0.40;;;;;;;4.08;100.00;100199.56;5035960;28;20033;-78
2023/11/07 04:58:18;;;;;;;0.50;0.50;;;;;;;4.08;100.00;100201.41;5004407;28;20540;-79
2023/11/07 05:00:44;;;;;;;0.47;0.47;;;;;;;4.07;100.00;100197.06;5003421;28;20480;-78
2023/11/07 05:03:13;;;;;;;0.40;0.40;;;;;;;4.07;100.00;100197.06;5018764;28;20480;-78
2023/11/07 05:05:38;;;;;;;0.40;0.40;;;;;;;4.01;100.00;100208.28;5002061;28;20494;-79
2023/11/07 05:08:07;;;;;;;0.50;0.50;;;;;;;3.89;100.00;100207.63;5003441;28;20076;-78
2023/11/07 05:10:33;;;;;;;0.50;0.50;;;;;;;3.75;100.00;100216.91;5003303;28;20091;-79
2023/11/07 05:12:59;;;;;;;0.40;0.40;;;;;;;3.62;100.00;100225.22;5019727;28;20041;-78
2023/11/07 05:15:27;;;;;;;0.40;0.40;;;;;;;3.58;100.00;100223.84;5003167;28;20480;-78
2023/11/07 05:17:54;;;;;;;0.40;0.40;;;;;;;3.57;100.00;100219.47;5002997;28;20044;-78
2023/11/07 05:20:19;;;;;;;0.50;0.50;;;;;;;3.47;100.00;100230.16;5019400;28;20040;-78
2023/11/07 05:22:45;;;;;;;0.43;0.43;;;;;;;3.35;100.00;100227.78;5035850;28;20490;-78
2023/11/07 05:25:11;;;;;;;0.50;0.50;;;;;;;3.35;100.00;100233.94;5019166;28;20498;-78
2023/11/07 05:27:36;;;;;;;0.40;0.40;;;;;;;3.36;100.00;100224.16;5003013;28;20037;-79
2023/11/07 05:30:02;;;;;;;0.50;0.50;;;;;;;3.32;100.00;100228.91;5002932;28;20084;-79
2023/11/07 05:32:28;;;;;;;0.50;0.50;;;;;;;3.44;100.00;100226.94;5035533;28;20025;-80
2023/11/07 05:34:53;;;;;;;0.40;0.40;;;;;;;3.49;100.00;100233.53;5002975;28;20102;-81
2023/11/07 05:37:19;;;;;;;0.43;0.43;;;;;;;3.69;100.00;100233.47;5035144;28;20044;-81
2023/11/07 05:39:45;;;;;;;0.50;0.50;;;;;;;3.81;100.00;100234.13;5002705;28;20037;-80
2023/11/07 05:42:11;;;;;;;0.50;0.50;;;;;;;3.79;100.00;100236.09;5002721;28;20425;-79
2023/11/07 05:44:37;;;;;;;0.50;0.50;;;;;;;3.71;100.00;100236.81;5018852;28;20025;-80
2023/11/07 05:47:04;;;;;;;0.40;0.40;;;;;;;3.62;100.00;100235.84;5002760;28;20057;-80
2023/11/07 05:49:29;;;;;;;0.50;0.50;;;;;;;3.65;100.00;100237.38;5002569;28;20045;-80
2023/11/07 05:51:56;;;;;;;0.50;0.50;;;;;;;3.66;100.00;100236.41;5002629;28;20048;-80
2023/11/07 05:54:22;;;;;;;0.40;0.40;;;;;;;3.61;100.00;100239.50;5018522;28;20030;-80
2023/11/07 05:56:48;;;;;;;0.40;0.40;;;;;;;3.56;100.00;100236.44;5018872;28;20033;-80
2023/11/07 05:59:14;;;;;;;0.50;0.50;;;;;;;3.53;100.00;100242.03;5002243;28;20033;-80
2023/11/07 06:01:40;;;;;;;0.45;0.45;;;;;;;3.52;100.00;100245.69;5001708;28;20603;-80
2023/11/07 06:04:07;;;;;;;0.50;0.50;;;;;;;3.65;100.00;100262.16;5002355;28;20044;-80
2023/11/07 06:06:32;;;;;;;0.50;0.50;;;;;;;3.64;100.00;100241.03;5002225;28;20037;-80
2023/11/07 06:08:58;;;;;;;0.50;0.50;;;;;;;3.70;100.00;100248.41;5018518;28;20042;-80
2023/11/07 06:11:30;;;;;;;0.50;0.50;;;;;;;3.71;100.00;100252.78;5001678;28;20041;-80
2023/11/07 06:13:55;;;;;;;0.50;0.50;;;;;;;3.71;100.00;100252.78;5002168;28;20102;-80
2023/11/07 06:16:21;;;;;;;0.40;0.40;;;;;;;3.74;100.00;100255.97;5001969;28;20037;-80
2023/11/07 06:18:47;;;;;;;0.40;0.40;;;;;;;3.93;100.00;100257.72;5002101;28;20037;-78
2023/11/07 06:21:15;;;;;;;0.50;0.50;;;;;;;4.09;100.00;100270.41;5001995;28;20364;-78
2023/11/07 06:23:41;;;;;;;0.50;0.50;;;;;;;4.07;100.00;100259.06;5002271;28;20049;-78
2023/11/07 06:26:07;;;;;;;0.40;0.40;;;;;;;4.17;100.00;100270.53;5001183;28;20034;-78
2023/11/07 06:28:32;;;;;;;0.40;0.40;;;;;;;4.16;100.00;100271.53;5017846;28;20520;-78
2023/11/07 06:30:58;;;;;;;0.50;0.50;;;;;;;4.39;100.00;100274.66;5001926;28;20048;-78
2023/11/07 06:33:23;;;;;;;0.50;0.50;;;;;;;4.48;100.00;100274.75;5002342;28;20107;-78
2023/11/07 06:35:49;;;;;;;0.45;0.45;;;;;;;4.37;100.00;100273.13;5001673;28;20435;-78
2023/11/07 06:38:17;;;;;;;0.40;0.40;;;;;;;4.38;100.00;100275.63;5017563;28;20065;-78
2023/11/07 06:40:43;;;;;;;0.50;0.50;;;;;;;4.33;100.00;100277.03;5017959;28;20034;-78
2023/11/07 06:43:09;;;;;;;0.50;0.50;;;;;;;4.22;100.00;100280.72;5017692;28;20061;-78
2023/11/07 06:45:34;;;;;;;0.50;0.50;;;;;;;4.54;100.00;100290.13;5001136;28;20056;-78
2023/11/07 06:48:00;;;;;;;0.40;0.40;;;;;;;4.57;100.00;100284.47;5001051;28;20033;-78
2023/11/07 06:50:26;;;;;;;0.50;0.50;;;;;;;4.55;100.00;100278.47;5001449;28;20087;-78
2023/11/07 06:52:52;;;;;;;0.40;0.40;;;;;;;4.49;100.00;100282.56;5001414;28;20379;-78
2023/11/07 06:55:23;;;;;;;0.50;0.50;;;;;;;4.46;100.00;100288.19;5001255;28;20043;-78
2023/11/07 06:57:50;;;;;;;0.50;0.50;;;;;;;4.53;100.00;100297.28;5001791;28;20041;-78
2023/11/07 07:00:18;;;;;;;0.50;0.50;;;;;;;4.47;100.00;100294.34;5033943;28;20049;-78
2023/11/07 07:02:48;;;;;;;0.40;0.40;;;;;;;4.31;100.00;100294.97;5001889;28;20041;-78
2023/11/07 07:05:15;;;;;;;0.40;0.40;;;;;;;4.30;100.00;100304.78;5000980;28;20034;-78
2023/11/07 07:07:41;;;;;;;0.40;0.40;;;;;;;4.34;100.00;100306.19;5017352;28;20041;-78
2023/11/07 07:10:09;;;;;;;0.40;0.40;;;;;;;4.41;100.00;100309.91;5033370;28;20038;-77
2023/11/07 07:12:38;;;;;;;0.50;0.50;;;;;;;4.45;100.00;100310.47;5016761;28;20043;-78
2023/11/07 07:15:07;;;;;;;0.50;0.50;;;;;;;4.54;100.00;100306.91;5016434;28;20029;-78
2023/11/07 07:17:33;;;;;;;0.40;0.40;;;;;;;4.64;100.00;100312.22;5033714;28;20040;-78
2023/11/07 07:19:59;;;;;;;0.50;0.50;;;;;;;4.72;100.00;100306.97;5000743;28;20037;-78
2023/11/07 07:22:27;;;;;;;0.50;0.50;;;;;;;4.72;100.00;100308.81;5000886;28;20030;-78
2023/11/07 07:24:59;;;;;;;0.40;0.40;;;;;;;4.60;100.00;100313.47;5017180;28;20356;-78
2023/11/07 07:27:26;;;;;;;0.40;0.40;;;;;;;4.52;100.00;100316.03;5000597;28;20028;-78
2023/11/07 07:29:53;;;;;;;0.40;0.40;;;;;;;4.50;100.00;100320.66;5016777;28;20033;-78
2023/11/07 07:32:20;;;;;;;0.40;0.40;;;;;;;4.46;100.00;100313.97;5016197;28;20117;-78
2023/11/07 07:34:46;;;;;;;0.40;0.40;;;;;;;4.41;100.00;100317.91;5031550;28;20365;-79
2023/11/07 07:37:11;;;;;;;0.40;0.40;;;;;;;4.43;100.00;100319.59;5000007;28;20043;-78
2023/11/07 07:39:38;;;;;;;0.40;0.40;;;;;;;4.60;100.00;100327.66;5032798;28;20116;-79
2023/11/07 07:42:10;;;;;;;0.40;0.40;;;;;;;4.80;100.00;100340.84;5017066;28;20082;-78
2023/11/07 07:44:36;;;;;;;0.40;0.40;;;;;;;4.90;100.00;100328.31;5002103;28;20548;-78
2023/11/07 07:47:02;;;;;;;0.40;0.40;;;;;;;4.92;100.00;100318.38;5000343;28;20372;-79
2023/11/07 07:49:30;;;;;;;0.40;0.40;;;;;;;5.08;100.00;100323.03;5032896;28;20033;-79
2023/11/07 07:52:00;;;;;;;0.40;0.40;;;;;;;5.19;100.00;100319.28;5001208;28;20041;-78
2023/11/07 07:54:28;;;;;;;0.40;0.40;;;;;;;5.17;100.00;100318.59;5000442;28;20029;-78
2023/11/07 07:56:55;;;;;;;0.50;0.50;;;;;;;5.09;100.00;100316.69;5016566;28;20076;-78
2023/11/07 07:59:23;;;;;;;0.50;0.50;;;;;;;4.95;100.00;100325.19;5032754;28;20077;-78
2023/11/07 08:01:52;;;;;;;0.50;0.50;;;;;;;4.86;100.00;100324.25;5016877;28;20467;-78
2023/11/07 08:04:26;;;;;;;0.45;0.45;;;;;;;4.83;100.00;100329.91;5016805;28;20468;-78
2023/11/07 08:06:52;;;;;;;;;;;;;;;4.86;100.00;100334.91;5016470;28;20122;-78
2023/11/07 08:09:18;;;;;;;0.50;0.50;;;;;;;4.89;100.00;100339.13;5032787;28;19963;-79
2023/11/07 08:11:47;;;;;;;0.40;0.40;;;;;;;4.91;100.00;100345.13;5016261;28;20061;-79
2023/11/07 08:14:14;;;;;;;0.40;0.40;;;;;;;4.90;100.00;100348.81;5016866;28;20043;-78
2023/11/07 08:16:41;;;;;;;0.50;0.50;;;;;;;4.85;100.00;100355.41;5016282;28;20034;-79
2023/11/07 08:19:11;;;;;;;0.40;0.40;;;;;;;4.85;100.00;100362.56;5016375;28;20037;-78
2023/11/07 08:21:40;;;;;;;0.50;0.50;;;;;;;4.89;100.00;100368.41;5032489;28;20036;-79
2023/11/07 08:24:06;;;;;;;0.47;0.47;;;;;;;4.96;100.00;100369.50;4999319;28;20037;-78
2023/11/07 08:26:35;;;;;;;0.50;0.50;;;;;;;5.11;100.00;100370.69;4999806;28;20041;-79
2023/11/07 08:29:08;;;;;;;0.40;0.40;;;;;;;5.29;100.00;100378.69;5032507;28;20029;-79
2023/11/07 08:31:34;;;;;;;0.40;0.40;;;;;;;5.50;100.00;100381.06;5016092;28;20491;-79
2023/11/07 08:34:00;;;;;;;0.47;0.47;;;;;;;5.57;100.00;100374.13;4999682;28;20033;-79
2023/11/07 08:36:27;;;;;;;0.50;0.50;;;;;;;5.53;100.00;100370.13;4999547;28;20025;-78
2023/11/07 08:38:52;;;;;;;0.40;0.40;;;;;;;5.43;100.00;100374.69;5032171;28;20037;-78
2023/11/07 08:41:18;;;;;;;0.40;0.40;;;;;;;5.33;100.00;100373.91;4999831;28;20124;-79
2023/11/07 08:43:44;;;;;;;0.50;0.50;;;;;;;5.40;100.00;100389.16;4999806;28;20486;-78
2023/11/07 08:46:09;;;;;;;0.40;0.40;;;;;;;5.55;100.00;100386.78;4999333;28;20036;-79
2023/11/07 08:48:35;;;;;;;0.50;0.50;;;;;;;5.79;100.00;100388.81;4999114;28;20112;-78
2023/11/07 08:51:01;;;;;;;0.50;0.50;;;;;;;6.14;100.00;100392.50;4999651;28;20037;-79
2023/11/07 08:53:27;;;;;;;0.40;0.40;;;;;;;6.22;100.00;100394.34;4999571;28;20096;-79
2023/11/07 08:55:52;;;;;;;0.50;0.50;;;;;;;6.12;100.00;100389.97;5015649;28;20057;-79
2023/11/07 08:58:19;;;;;;;0.50;0.50;;;;;;;5.91;100.00;100386.75;4999556;28;20037;-79
2023/11/07 09:00:45;;;;;;;0.40;0.40;;;;;;;5.69;100.00;100391.59;5031743;28;20492;-79
2023/11/07 09:03:11;;;;;;;0.50;0.50;;;;;;;5.48;100.00;100391.06;5013688;28;20025;-79
2023/11/07 09:05:38;;;;;;;0.50;0.50;;;;;;;5.39;100.00;100391.94;4998972;28;20121;-79
2023/11/07 09:08:04;;;;;;;0.50;0.50;;;;;;;5.40;100.00;100398.94;4999487;28;20036;-79
2023/11/07 09:10:31;;;;;;;0.40;0.40;;;;;;;5.44;100.00;100393.16;4997590;28;20041;-82
2023/11/07 09:12:57;;;;;;;0.50;0.50;;;;;;;6.42;100.00;100395.00;5013809;28;20480;-83
2023/11/07 09:15:25;;;;;;;0.40;0.40;;;;;;;7.17;100.00;100398.69;5046864;28;20055;-80
2023/11/07 09:17:51;;;;;;;0.43;0.43;;;;;;;7.14;100.00;100395.47;5038034;28;20135;-82
2023/11/07 09:20:18;;;;;;;0.50;0.50;;;;;;;7.80;100.00;100402.63;5014636;28;20037;-83
2023/11/07 09:22:44;;;;;;;0.40;0.40;;;;;;;7.53;100.00;100405.59;5015738;28;20033;-83
2023/11/07 09:25:15;;;;;;;0.50;0.50;;;;;;;7.29;100.00;100403.72;5016187;28;20049;-83
2023/11/07 09:27:41;;;;;;;0.50;0.50;;;;;;;7.21;100.00;100405.38;4984247;28;20034;-83
2023/11/07 09:30:11;;;;;;;0.40;0.40;;;;;;;7.04;100.00;100385.78;5015531;28;20040;-83
2023/11/07 09:32:41;;;;;;;0.40;0.40;;;;;;;7.01;100.00;100403.94;4999669;28;20064;-83
2023/11/07 09:35:07;;;;;;;0.40;0.40;;;;;;;6.80;100.00;100391.88;5015959;28;20087;-82
2023/11/07 09:37:39;;;;;;;0.40;0.40;;;;;;;6.81;100.00;100409.56;5034270;28;20033;-82
2023/11/07 09:40:10;;;;;;;0.50;0.50;;;;;;;6.75;100.00;100407.53;5036572;28;20091;-82
2023/11/07 09:42:41;;;;;;;0.45;0.45;;;;;;;6.77;100.00;100404.69;5018340;28;20108;-82
2023/11/07 09:45:10;;;;;;;0.60;0.60;;;;;;;8.07;100.00;100408.63;5018965;28;20030;-83
2023/11/07 09:47:36;;;;;;;0.50;0.50;;;;;;;9.43;100.00;100400.53;5018968;28;20083;-83
2023/11/07 09:50:04;;;;;;;0.50;0.50;;;;;;;10.27;100.00;100405.94;5018453;28;20414;-83
2023/11/07 09:52:32;;;;;;;0.50;0.50;;;;;;;10.93;100.00;100406.13;5018721;28;20238;-83
2023/11/07 09:55:00;;;;;;;0.52;0.52;;;;;;;11.57;100.00;100414.31;5034901;28;20033;-83
2023/11/07 09:57:27;;;;;;;0.30;0.30;;;;;;;11.60;100.00;100403.16;5017743;28;20120;-84
2023/11/07 09:59:54;;;;;;;0.30;0.30;;;;;;;10.02;100.00;100413.38;5019139;28;20025;-83
2023/11/07 10:02:21;;;;;;;0.40;0.40;;;;;;;9.15;100.00;100414.44;5018059;28;20476;-82
2023/11/07 10:04:50;;;;;;;0.50;0.50;;;;;;;8.65;100.00;100414.78;5035728;28;20032;-79
2023/11/07 10:07:16;;;;;;;0.40;0.40;;;;;;;8.37;100.00;100421.34;5034895;28;20518;-79
2023/11/07 10:09:41;;;;;;;0.47;0.47;;;;;;;8.26;100.00;100421.69;5002315;28;20033;-79
2023/11/07 10:12:15;;;;;;;0.40;0.40;;;;;;;8.27;100.00;100420.69;5017887;28;20379;-78
2023/11/07 10:14:42;;;;;;;0.40;0.40;;;;;;;8.27;100.00;100425.22;5034744;28;20095;-78
2023/11/07 10:17:20;;;;;;;0.40;0.40;;;;;;;8.29;100.00;100425.88;5018311;28;20037;-78
2023/11/07 10:19:46;;;;;;;0.40;0.40;;;;;;;8.28;100.00;100424.19;5017659;28;20061;-79
2023/11/07 10:22:12;;;;;;;0.40;0.40;;;;;;;8.31;100.00;100435.44;5034632;28;20492;-78
2023/11/07 10:24:44;;;;;;;0.40;0.40;;;;;;;9.58;100.00;100425.63;5034067;28;20029;-78
2023/11/07 10:27:11;;;;;;;0.40;0.40;;;;;;;9.03;100.00;100427.41;5034572;28;20121;-78
2023/11/07 10:29:51;;;;;;;0.40;0.40;;;;;;;9.15;100.00;100425.16;5017609;28;20132;-78
2023/11/07 10:32:17;;;;;;;0.40;0.40;;;;;;;9.16;100.00;100428.69;5001396;28;20052;-79
2023/11/07 10:34:45;;;;;;;0.40;0.40;;;;;;;8.82;100.00;100418.28;5017456;28;20403;-78
2023/11/07 10:37:11;;;;;;;0.40;0.40;;;;;;;8.64;100.00;100422.00;5018027;28;20036;-79
2023/11/07 10:39:37;;;;;;;0.40;0.40;;;;;;;8.61;100.00;100425.03;5002149;28;20041;-79
2023/11/07 10:42:17;;;;;;;0.40;0.40;;;;;;;8.54;100.00;100415.97;5022693;28;20480;-79
2023/11/07 10:44:44;;;;;;;0.50;0.50;;;;;;;9.43;100.00;100420.16;5011611;28;20025;-78
2023/11/07 10:47:10;;;;;;;0.47;0.47;;;;;;;10.19;100.00;100424.81;5002437;28;20033;-79
2023/11/07 10:49:59;;;;;;;0.57;0.57;;;;;;;10.42;100.00;100420.25;5033716;28;20033;-79
2023/11/07 10:52:25;;;;;;;0.40;0.40;;;;;;;10.51;100.00;100419.16;5001743;28;20504;-79
2023/11/07 10:54:50;;;;;;;0.40;0.40;;;;;;;10.82;100.00;100428.91;5017248;28;20128;-79
2023/11/07 10:57:23;;;;;;;0.40;0.40;;;;;;;10.78;100.00;100417.69;5001253;28;20033;-78
2023/11/07 10:59:49;;;;;;;0.50;0.50;;;;;;;10.64;100.00;100409.59;5017891;28;20036;-78
2023/11/07 11:02:33;;;;;;;0.40;0.40;;;;;;;10.82;100.00;100404.69;4996389;28;20040;-79
2023/11/07 11:05:01;;;;;;;0.40;0.40;;;;;;;11.08;100.00;100416.84;5015379;28;20033;-79
2023/11/07 11:07:28;;;;;;;0.50;0.50;;;;;;;11.10;100.00;100421.00;5000482;28;20043;-79
2023/11/07 11:09:55;;;;;;;0.40;0.40;;;;;;;10.72;100.00;100423.00;5032958;28;20543;-79
2023/11/07 11:12:21;;;;;;;0.40;0.40;;;;;;;10.54;100.00;100413.41;5015548;28;20057;-79
2023/11/07 11:14:50;;;;;;;0.40;0.40;;;;;;;10.66;100.00;100416.47;5032964;28;20052;-79
2023/11/07 11:17:33;;;;;;;0.40;0.40;;;;;;;10.59;100.00;100417.41;5033159;28;20036;-80
2023/11/07 11:20:37;;;;;;;0.50;0.50;;;;;;;10.42;100.00;100412.19;5000816;28;20487;-79
2023/11/07 11:23:36;;;;;;;0.40;0.40;;;;;;;10.44;100.00;100412.00;5029708;28;20042;-79